sensor_id;sensor_type;location;lat;lon;timestamp;temperature;humidity
25154;DHT22;47555;51.038;6.280;2022-09-01T00:00:39;17.60;65.20
25154;DHT22;47555;51.038;6.280;2022-09-01T00:03:07;17.50;66.20
25154;DHT22;47555;51.038;6.280;2022-09-01T00:05:35;17.50;66.90
25154;DHT22;47555;51.038;6.280;2022-09-01T00:08:02;17.50;66.60
25154;DHT22;47555;51.038;6.280;2022-09-01T00:10:27;17.50;66.20
25154;DHT22;47555;51.038;6.280;2022-09-01T00:12:56;17.50;67.20
25154;DHT22;47555;51.038;6.280;2022-09-01T00:15:22;17.50;66.60
25154;DHT22;47555;51.038;6.280;2022-09-01T00:17:47;17.50;65.70
25154;DHT22;47555;51.038;6.280;2022-09-01T00:20:13;17.50;66.40
25154;DHT22;47555;51.038;6.280;2022-09-01T00:22:39;17.50;67.20
25154;DHT22;47555;51.038;6.280;2022-09-01T00:25:05;17.50;67.20
25154;DHT22;47555;51.038;6.280;2022-09-01T00:27:31;17.50;67.30
25154;DHT22;47555;51.038;6.280;2022-09-01T00:29:57;17.50;68.80
25154;DHT22;47555;51.038;6.280;2022-09-01T00:32:23;17.50;67.90
25154;DHT22;47555;51.038;6.280;2022-09-01T00:34:49;17.50;70.20
25154;DHT22;47555;51.038;6.280;2022-09-01T00:37:15;17.50;70.30
25154;DHT22;47555;51.038;6.280;2022-09-01T00:39:41;17.40;69.90
25154;DHT22;47555;51.038;6.280;2022-09-01T00:42:06;17.50;69.10
25154;DHT22;47555;51.038;6.280;2022-09-01T00:44:32;17.40;68.10
25154;DHT22;47555;51.038;6.280;2022-09-01T00:47:01;17.40;68.60
25154;DHT22;47555;51.038;6.280;2022-09-01T00:51:55;17.40;70.00
25154;DHT22;47555;51.038;6.280;2022-09-01T00:54:24;17.40;69.90
25154;DHT22;47555;51.038;6.280;2022-09-01T00:56:50;17.40;70.50
25154;DHT22;47555;51.038;6.280;2022-09-01T00:59:19;17.30;70.90
25154;DHT22;47555;51.038;6.280;2022-09-01T01:01:45;17.30;71.40
25154;DHT22;47555;51.038;6.280;2022-09-01T01:04:10;17.30;70.80
25154;DHT22;47555;51.038;6.280;2022-09-01T01:06:41;17.30;70.80
25154;DHT22;47555;51.038;6.280;2022-09-01T01:09:07;17.30;71.00
25154;DHT22;47555;51.038;6.280;2022-09-01T01:11:33;17.20;70.70
25154;DHT22;47555;51.038;6.280;2022-09-01T01:14:08;17.20;71.10
25154;DHT22;47555;51.038;6.280;2022-09-01T01:16:41;17.20;71.10
25154;DHT22;47555;51.038;6.280;2022-09-01T01:19:22;17.20;71.40
25154;DHT22;47555;51.038;6.280;2022-09-01T01:22:12;17.10;72.60
25154;DHT22;47555;51.038;6.280;2022-09-01T01:24:56;17.10;72.90
25154;DHT22;47555;51.038;6.280;2022-09-01T01:27:23;17.10;74.40
25154;DHT22;47555;51.038;6.280;2022-09-01T01:29:48;17.10;75.10
25154;DHT22;47555;51.038;6.280;2022-09-01T01:32:17;17.00;75.60
25154;DHT22;47555;51.038;6.280;2022-09-01T01:34:43;17.00;77.40
25154;DHT22;47555;51.038;6.280;2022-09-01T01:37:11;16.90;78.60
25154;DHT22;47555;51.038;6.280;2022-09-01T01:39:39;16.90;81.20
25154;DHT22;47555;51.038;6.280;2022-09-01T01:42:07;16.80;81.70
25154;DHT22;47555;51.038;6.280;2022-09-01T01:44:34;16.80;83.40
25154;DHT22;47555;51.038;6.280;2022-09-01T01:47:04;16.80;84.80
25154;DHT22;47555;51.038;6.280;2022-09-01T01:49:33;16.70;87.30
25154;DHT22;47555;51.038;6.280;2022-09-01T01:51:58;16.70;88.10
25154;DHT22;47555;51.038;6.280;2022-09-01T01:54:26;16.60;87.60
25154;DHT22;47555;51.038;6.280;2022-09-01T01:56:55;16.60;87.40
25154;DHT22;47555;51.038;6.280;2022-09-01T01:59:21;16.60;87.60
25154;DHT22;47555;51.038;6.280;2022-09-01T02:01:49;16.50;87.30
25154;DHT22;47555;51.038;6.280;2022-09-01T02:04:16;16.50;87.50
25154;DHT22;47555;51.038;6.280;2022-09-01T02:06:43;16.40;88.00
25154;DHT22;47555;51.038;6.280;2022-09-01T02:09:13;16.40;87.60
25154;DHT22;47555;51.038;6.280;2022-09-01T02:11:39;16.30;88.00
25154;DHT22;47555;51.038;6.280;2022-09-01T02:14:06;16.30;88.70
25154;DHT22;47555;51.038;6.280;2022-09-01T02:16:33;16.30;89.00
25154;DHT22;47555;51.038;6.280;2022-09-01T02:19:00;16.30;89.20
25154;DHT22;47555;51.038;6.280;2022-09-01T02:21:28;16.20;89.50
25154;DHT22;47555;51.038;6.280;2022-09-01T02:23:59;16.20;90.20
25154;DHT22;47555;51.038;6.280;2022-09-01T02:26:28;16.20;90.50
25154;DHT22;47555;51.038;6.280;2022-09-01T02:29:01;16.20;90.70
25154;DHT22;47555;51.038;6.280;2022-09-01T02:31:30;16.10;91.80
25154;DHT22;47555;51.038;6.280;2022-09-01T02:33:57;16.10;92.60
25154;DHT22;47555;51.038;6.280;2022-09-01T02:36:23;16.10;94.90
25154;DHT22;47555;51.038;6.280;2022-09-01T02:38:50;16.10;95.50
25154;DHT22;47555;51.038;6.280;2022-09-01T02:41:16;16.10;96.40
25154;DHT22;47555;51.038;6.280;2022-09-01T02:43:44;16.00;96.10
25154;DHT22;47555;51.038;6.280;2022-09-01T02:46:11;16.00;96.40
25154;DHT22;47555;51.038;6.280;2022-09-01T02:48:40;15.90;96.90
25154;DHT22;47555;51.038;6.280;2022-09-01T02:51:14;15.90;97.20
25154;DHT22;47555;51.038;6.280;2022-09-01T02:53:42;15.90;97.60
25154;DHT22;47555;51.038;6.280;2022-09-01T02:56:10;15.80;97.90
25154;DHT22;47555;51.038;6.280;2022-09-01T02:58:41;15.80;98.80
25154;DHT22;47555;51.038;6.280;2022-09-01T03:01:17;15.70;99.30
25154;DHT22;47555;51.038;6.280;2022-09-01T03:03:50;15.70;99.80
25154;DHT22;47555;51.038;6.280;2022-09-01T03:06:17;15.70;99.90
25154;DHT22;47555;51.038;6.280;2022-09-01T03:08:44;15.70;99.90
25154;DHT22;47555;51.038;6.280;2022-09-01T03:11:10;15.70;99.90
25154;DHT22;47555;51.038;6.280;2022-09-01T03:13:38;15.60;99.90
25154;DHT22;47555;51.038;6.280;2022-09-01T03:16:05;15.60;99.90
25154;DHT22;47555;51.038;6.280;2022-09-01T03:18:32;15.60;99.90
25154;DHT22;47555;51.038;6.280;2022-09-01T03:20:58;15.60;99.90
25154;DHT22;47555;51.038;6.280;2022-09-01T03:23:23;15.60;99.90
25154;DHT22;47555;51.038;6.280;2022-09-01T03:25:52;15.50;99.90
25154;DHT22;47555;51.038;6.280;2022-09-01T03:28:18;15.50;99.90
25154;DHT22;47555;51.038;6.280;2022-09-01T03:30:46;15.50;99.90
25154;DHT22;47555;51.038;6.280;2022-09-01T03:33:14;15.60;99.90
25154;DHT22;47555;51.038;6.280;2022-09-01T03:35:42;15.50;99.90
25154;DHT22;47555;51.038;6.280;2022-09-01T03:38:07;15.50;99.90
25154;DHT22;47555;51.038;6.280;2022-09-01T03:40:34;15.50;99.90
25154;DHT22;47555;51.038;6.280;2022-09-01T03:43:02;15.60;99.90
25154;DHT22;47555;51.038;6.280;2022-09-01T03:45:28;15.50;99.90
25154;DHT22;47555;51.038;6.280;2022-09-01T03:47:55;15.50;99.90
25154;DHT22;47555;51.038;6.280;2022-09-01T03:50:23;15.50;99.90
25154;DHT22;47555;51.038;6.280;2022-09-01T03:52:54;15.50;99.90
25154;DHT22;47555;51.038;6.280;2022-09-01T03:55:28;15.50;99.90
25154;DHT22;47555;51.038;6.280;2022-09-01T03:57:57;15.50;99.90
25154;DHT22;47555;51.038;6.280;2022-09-01T04:00:25;15.50;99.90
25154;DHT22;47555;51.038;6.280;2022-09-01T04:02:55;15.50;99.90
25154;DHT22;47555;51.038;6.280;2022-09-01T04:05:26;15.40;99.90
25154;DHT22;47555;51.038;6.280;2022-09-01T04:07:54;15.40;99.90
25154;DHT22;47555;51.038;6.280;2022-09-01T04:10:20;15.40;99.90
25154;DHT22;47555;51.038;6.280;2022-09-01T04:12:47;15.30;99.90
25154;DHT22;47555;51.038;6.280;2022-09-01T04:15:14;15.30;99.90
25154;DHT22;47555;51.038;6.280;2022-09-01T04:17:42;15.30;99.90
25154;DHT22;47555;51.038;6.280;2022-09-01T04:20:26;15.30;99.90
25154;DHT22;47555;51.038;6.280;2022-09-01T04:22:52;15.30;99.90
25154;DHT22;47555;51.038;6.280;2022-09-01T04:25:18;15.20;99.90
25154;DHT22;47555;51.038;6.280;2022-09-01T04:27:49;15.20;99.90
25154;DHT22;47555;51.038;6.280;2022-09-01T04:30:15;15.20;99.90
25154;DHT22;47555;51.038;6.280;2022-09-01T04:32:41;15.20;99.90
25154;DHT22;47555;51.038;6.280;2022-09-01T04:35:08;15.20;99.90
25154;DHT22;47555;51.038;6.280;2022-09-01T04:37:36;15.10;99.90
25154;DHT22;47555;51.038;6.280;2022-09-01T04:40:03;15.10;99.90
25154;DHT22;47555;51.038;6.280;2022-09-01T04:42:29;15.10;99.90
25154;DHT22;47555;51.038;6.280;2022-09-01T04:44:57;15.10;99.90
25154;DHT22;47555;51.038;6.280;2022-09-01T04:47:25;15.10;99.90
25154;DHT22;47555;51.038;6.280;2022-09-01T04:49:57;15.10;99.90
25154;DHT22;47555;51.038;6.280;2022-09-01T04:52:24;15.10;99.90
25154;DHT22;47555;51.038;6.280;2022-09-01T04:54:50;15.10;99.90
25154;DHT22;47555;51.038;6.280;2022-09-01T04:57:16;15.10;99.90
25154;DHT22;47555;51.038;6.280;2022-09-01T04:59:45;15.10;99.90
25154;DHT22;47555;51.038;6.280;2022-09-01T05:02:11;15.10;99.90
25154;DHT22;47555;51.038;6.280;2022-09-01T05:04:36;15.10;99.90
25154;DHT22;47555;51.038;6.280;2022-09-01T05:07:03;15.10;99.90
25154;DHT22;47555;51.038;6.280;2022-09-01T05:09:32;15.10;99.90
25154;DHT22;47555;51.038;6.280;2022-09-01T05:12:00;15.00;99.90
25154;DHT22;47555;51.038;6.280;2022-09-01T05:14:39;15.10;99.90
25154;DHT22;47555;51.038;6.280;2022-09-01T05:17:11;15.00;99.90
25154;DHT22;47555;51.038;6.280;2022-09-01T05:19:38;15.00;99.90
25154;DHT22;47555;51.038;6.280;2022-09-01T05:22:06;15.00;99.90
25154;DHT22;47555;51.038;6.280;2022-09-01T05:24:33;15.00;99.90
25154;DHT22;47555;51.038;6.280;2022-09-01T05:26:59;15.00;99.90
25154;DHT22;47555;51.038;6.280;2022-09-01T05:29:25;15.00;99.90
25154;DHT22;47555;51.038;6.280;2022-09-01T05:31:52;15.00;99.90
25154;DHT22;47555;51.038;6.280;2022-09-01T05:34:20;15.00;99.90
25154;DHT22;47555;51.038;6.280;2022-09-01T05:36:51;15.10;99.90
25154;DHT22;47555;51.038;6.280;2022-09-01T05:39:17;15.10;99.90
25154;DHT22;47555;51.038;6.280;2022-09-01T05:41:43;15.10;99.90
25154;DHT22;47555;51.038;6.280;2022-09-01T05:44:10;15.10;99.90
25154;DHT22;47555;51.038;6.280;2022-09-01T05:46:37;15.10;99.90
25154;DHT22;47555;51.038;6.280;2022-09-01T05:49:05;15.10;99.90
25154;DHT22;47555;51.038;6.280;2022-09-01T05:51:31;15.10;99.90
25154;DHT22;47555;51.038;6.280;2022-09-01T05:53:59;15.10;99.90
25154;DHT22;47555;51.038;6.280;2022-09-01T05:56:27;15.10;99.90
25154;DHT22;47555;51.038;6.280;2022-09-01T05:58:54;15.10;99.90
25154;DHT22;47555;51.038;6.280;2022-09-01T06:01:23;15.20;99.90
25154;DHT22;47555;51.038;6.280;2022-09-01T06:03:52;15.30;99.90
25154;DHT22;47555;51.038;6.280;2022-09-01T06:06:23;15.50;99.90
25154;DHT22;47555;51.038;6.280;2022-09-01T06:08:49;15.80;99.90
25154;DHT22;47555;51.038;6.280;2022-09-01T06:11:16;15.90;99.90
25154;DHT22;47555;51.038;6.280;2022-09-01T06:13:45;16.10;99.90
25154;DHT22;47555;51.038;6.280;2022-09-01T06:16:13;16.30;99.90
25154;DHT22;47555;51.038;6.280;2022-09-01T06:18:39;16.40;99.90
25154;DHT22;47555;51.038;6.280;2022-09-01T06:21:08;16.60;99.90
25154;DHT22;47555;51.038;6.280;2022-09-01T06:23:40;16.70;99.60
25154;DHT22;47555;51.038;6.280;2022-09-01T06:26:05;16.90;99.30
25154;DHT22;47555;51.038;6.280;2022-09-01T06:28:32;17.00;99.40
25154;DHT22;47555;51.038;6.280;2022-09-01T06:30:58;17.10;99.90
25154;DHT22;47555;51.038;6.280;2022-09-01T06:33:24;17.30;98.70
25154;DHT22;47555;51.038;6.280;2022-09-01T06:35:50;17.40;97.50
25154;DHT22;47555;51.038;6.280;2022-09-01T06:38:17;17.50;96.90
25154;DHT22;47555;51.038;6.280;2022-09-01T06:40:44;17.60;96.80
25154;DHT22;47555;51.038;6.280;2022-09-01T06:43:11;17.80;97.90
25154;DHT22;47555;51.038;6.280;2022-09-01T06:45:41;18.00;97.50
25154;DHT22;47555;51.038;6.280;2022-09-01T06:48:07;18.10;95.60
25154;DHT22;47555;51.038;6.280;2022-09-01T06:50:33;18.30;94.60
25154;DHT22;47555;51.038;6.280;2022-09-01T06:52:59;18.40;93.50
25154;DHT22;47555;51.038;6.280;2022-09-01T06:55:43;18.50;92.60
25154;DHT22;47555;51.038;6.280;2022-09-01T06:58:13;18.60;91.80
25154;DHT22;47555;51.038;6.280;2022-09-01T07:00:41;18.80;92.30
25154;DHT22;47555;51.038;6.280;2022-09-01T07:03:09;18.90;92.00
25154;DHT22;47555;51.038;6.280;2022-09-01T07:05:42;19.10;90.90
25154;DHT22;47555;51.038;6.280;2022-09-01T07:08:10;19.20;89.60
25154;DHT22;47555;51.038;6.280;2022-09-01T07:10:43;19.40;90.30
25154;DHT22;47555;51.038;6.280;2022-09-01T07:13:13;19.60;89.50
25154;DHT22;47555;51.038;6.280;2022-09-01T07:15:43;19.70;87.20
25154;DHT22;47555;51.038;6.280;2022-09-01T07:18:09;19.90;86.20
25154;DHT22;47555;51.038;6.280;2022-09-01T07:20:40;20.10;85.80
25154;DHT22;47555;51.038;6.280;2022-09-01T07:23:06;20.20;83.90
25154;DHT22;47555;51.038;6.280;2022-09-01T07:25:39;20.40;84.90
25154;DHT22;47555;51.038;6.280;2022-09-01T07:28:06;20.60;82.00
25154;DHT22;47555;51.038;6.280;2022-09-01T07:30:32;20.80;78.10
25154;DHT22;47555;51.038;6.280;2022-09-01T07:32:59;20.80;77.50
25154;DHT22;47555;51.038;6.280;2022-09-01T07:35:25;20.80;71.00
25154;DHT22;47555;51.038;6.280;2022-09-01T07:37:51;20.90;67.30
25154;DHT22;47555;51.038;6.280;2022-09-01T07:40:19;20.80;69.20
25154;DHT22;47555;51.038;6.280;2022-09-01T07:42:52;20.80;70.10
25154;DHT22;47555;51.038;6.280;2022-09-01T07:45:18;20.90;71.80
25154;DHT22;47555;51.038;6.280;2022-09-01T07:47:44;21.00;65.00
25154;DHT22;47555;51.038;6.280;2022-09-01T07:50:12;21.10;60.50
25154;DHT22;47555;51.038;6.280;2022-09-01T07:52:41;21.10;60.50
25154;DHT22;47555;51.038;6.280;2022-09-01T07:55:14;21.10;63.20
25154;DHT22;47555;51.038;6.280;2022-09-01T07:57:42;21.10;57.40
25154;DHT22;47555;51.038;6.280;2022-09-01T08:00:10;21.10;58.70
25154;DHT22;47555;51.038;6.280;2022-09-01T08:02:36;21.20;59.00
25154;DHT22;47555;51.038;6.280;2022-09-01T08:05:06;21.30;57.80
25154;DHT22;47555;51.038;6.280;2022-09-01T08:07:33;21.40;55.50
25154;DHT22;47555;51.038;6.280;2022-09-01T08:09:59;21.50;58.30
25154;DHT22;47555;51.038;6.280;2022-09-01T08:12:24;21.60;53.20
25154;DHT22;47555;51.038;6.280;2022-09-01T08:14:50;21.80;52.70
25154;DHT22;47555;51.038;6.280;2022-09-01T08:17:17;22.00;57.80
25154;DHT22;47555;51.038;6.280;2022-09-01T08:19:44;22.20;54.10
25154;DHT22;47555;51.038;6.280;2022-09-01T08:22:12;22.50;51.60
25154;DHT22;47555;51.038;6.280;2022-09-01T08:24:37;22.70;47.00
25154;DHT22;47555;51.038;6.280;2022-09-01T08:27:03;22.80;46.10
25154;DHT22;47555;51.038;6.280;2022-09-01T08:29:29;23.00;43.80
25154;DHT22;47555;51.038;6.280;2022-09-01T08:31:54;23.10;40.30
25154;DHT22;47555;51.038;6.280;2022-09-01T08:34:22;23.10;41.30
25154;DHT22;47555;51.038;6.280;2022-09-01T08:36:48;23.20;41.40
25154;DHT22;47555;51.038;6.280;2022-09-01T08:39:14;23.10;39.20
25154;DHT22;47555;51.038;6.280;2022-09-01T08:47:24;23.20;38.50
25154;DHT22;47555;51.038;6.280;2022-09-01T08:49:50;23.20;40.20
25154;DHT22;47555;51.038;6.280;2022-09-01T08:52:37;23.20;38.50
25154;DHT22;47555;51.038;6.280;2022-09-01T08:55:18;23.20;38.40
25154;DHT22;47555;51.038;6.280;2022-09-01T08:57:46;23.50;41.40
25154;DHT22;47555;51.038;6.280;2022-09-01T09:00:17;23.60;39.50
25154;DHT22;47555;51.038;6.280;2022-09-01T09:05:27;23.90;35.60
25154;DHT22;47555;51.038;6.280;2022-09-01T09:08:40;23.90;38.70
25154;DHT22;47555;51.038;6.280;2022-09-01T09:11:22;24.10;34.90
25154;DHT22;47555;51.038;6.280;2022-09-01T09:16:30;24.20;34.20
25154;DHT22;47555;51.038;6.280;2022-09-01T09:21:50;24.30;35.60
25154;DHT22;47555;51.038;6.280;2022-09-01T09:24:39;24.40;32.30
25154;DHT22;47555;51.038;6.280;2022-09-01T09:27:37;24.40;32.50
25154;DHT22;47555;51.038;6.280;2022-09-01T09:32:51;24.60;32.50
25154;DHT22;47555;51.038;6.280;2022-09-01T09:35:27;24.70;31.70
25154;DHT22;47555;51.038;6.280;2022-09-01T09:37:55;24.80;29.50
25154;DHT22;47555;51.038;6.280;2022-09-01T09:43:34;24.90;28.30
25154;DHT22;47555;51.038;6.280;2022-09-01T09:46:25;24.90;26.20
25154;DHT22;47555;51.038;6.280;2022-09-01T09:49:12;25.00;28.60
25154;DHT22;47555;51.038;6.280;2022-09-01T09:51:40;25.10;26.20
25154;DHT22;47555;51.038;6.280;2022-09-01T09:56:40;25.20;26.70
25154;DHT22;47555;51.038;6.280;2022-09-01T09:59:27;25.30;27.80
25154;DHT22;47555;51.038;6.280;2022-09-01T10:01:57;25.40;26.20
25154;DHT22;47555;51.038;6.280;2022-09-01T10:04:33;25.40;25.70
25154;DHT22;47555;51.038;6.280;2022-09-01T10:07:00;25.40;24.90
25154;DHT22;47555;51.038;6.280;2022-09-01T10:11:54;25.50;25.50
25154;DHT22;47555;51.038;6.280;2022-09-01T10:14:25;25.50;23.40
25154;DHT22;47555;51.038;6.280;2022-09-01T10:16:59;25.40;23.00
25154;DHT22;47555;51.038;6.280;2022-09-01T10:19:25;25.40;24.20
25154;DHT22;47555;51.038;6.280;2022-09-01T10:21:53;25.40;23.40
25154;DHT22;47555;51.038;6.280;2022-09-01T10:24:33;25.50;23.90
25154;DHT22;47555;51.038;6.280;2022-09-01T10:27:02;25.50;25.00
25154;DHT22;47555;51.038;6.280;2022-09-01T10:29:33;25.50;22.60
25154;DHT22;47555;51.038;6.280;2022-09-01T10:32:03;25.40;21.50
25154;DHT22;47555;51.038;6.280;2022-09-01T10:34:35;25.20;21.30
25154;DHT22;47555;51.038;6.280;2022-09-01T10:37:03;24.80;22.10
25154;DHT22;47555;51.038;6.280;2022-09-01T10:39:30;24.60;21.90
25154;DHT22;47555;51.038;6.280;2022-09-01T10:41:56;24.40;22.70
25154;DHT22;47555;51.038;6.280;2022-09-01T10:44:26;24.40;24.00
25154;DHT22;47555;51.038;6.280;2022-09-01T10:46:56;24.40;23.10
25154;DHT22;47555;51.038;6.280;2022-09-01T10:51:52;24.10;22.90
25154;DHT22;47555;51.038;6.280;2022-09-01T10:57:24;24.40;24.20
25154;DHT22;47555;51.038;6.280;2022-09-01T10:59:53;24.50;23.40
25154;DHT22;47555;51.038;6.280;2022-09-01T11:02:21;24.40;23.40
25154;DHT22;47555;51.038;6.280;2022-09-01T11:13:07;24.60;23.90
25154;DHT22;47555;51.038;6.280;2022-09-01T11:15:36;24.70;22.10
25154;DHT22;47555;51.038;6.280;2022-09-01T11:18:11;24.90;22.20
25154;DHT22;47555;51.038;6.280;2022-09-01T11:20:39;24.90;21.20
25154;DHT22;47555;51.038;6.280;2022-09-01T11:23:28;25.00;21.10
25154;DHT22;47555;51.038;6.280;2022-09-01T11:47:19;25.70;18.40
25154;DHT22;47555;51.038;6.280;2022-09-01T11:49:54;25.70;17.80
25154;DHT22;47555;51.038;6.280;2022-09-01T11:52:25;25.60;18.20
25154;DHT22;47555;51.038;6.280;2022-09-01T11:54:52;25.60;18.90
25154;DHT22;47555;51.038;6.280;2022-09-01T11:57:44;25.60;18.80
25154;DHT22;47555;51.038;6.280;2022-09-01T12:00:12;25.70;18.50
25154;DHT22;47555;51.038;6.280;2022-09-01T12:02:51;25.70;18.40
25154;DHT22;47555;51.038;6.280;2022-09-01T12:07:51;25.60;19.10
25154;DHT22;47555;51.038;6.280;2022-09-01T12:10:34;25.60;19.20
25154;DHT22;47555;51.038;6.280;2022-09-01T12:13:10;25.50;19.30
25154;DHT22;47555;51.038;6.280;2022-09-01T12:15:38;25.30;19.80
25154;DHT22;47555;51.038;6.280;2022-09-01T12:20:49;25.00;20.20
25154;DHT22;47555;51.038;6.280;2022-09-01T12:25:56;24.90;20.00
25154;DHT22;47555;51.038;6.280;2022-09-01T12:28:24;25.00;19.90
25154;DHT22;47555;51.038;6.280;2022-09-01T12:30:51;24.90;20.80
25154;DHT22;47555;51.038;6.280;2022-09-01T12:33:17;24.90;20.30
25154;DHT22;47555;51.038;6.280;2022-09-01T12:35:44;24.70;21.80
25154;DHT22;47555;51.038;6.280;2022-09-01T12:40:54;24.40;21.10
25154;DHT22;47555;51.038;6.280;2022-09-01T12:43:32;24.30;21.80
25154;DHT22;47555;51.038;6.280;2022-09-01T12:45:58;24.30;21.80
25154;DHT22;47555;51.038;6.280;2022-09-01T12:48:32;24.30;20.80
25154;DHT22;47555;51.038;6.280;2022-09-01T12:51:00;24.40;22.30
25154;DHT22;47555;51.038;6.280;2022-09-01T12:53:29;24.50;22.70
25154;DHT22;47555;51.038;6.280;2022-09-01T12:56:03;24.90;23.20
25154;DHT22;47555;51.038;6.280;2022-09-01T12:58:31;25.00;21.40
25154;DHT22;47555;51.038;6.280;2022-09-01T13:01:03;25.10;20.50
25154;DHT22;47555;51.038;6.280;2022-09-01T13:03:30;25.10;19.80
25154;DHT22;47555;51.038;6.280;2022-09-01T13:05:58;24.90;20.80
25154;DHT22;47555;51.038;6.280;2022-09-01T13:08:27;24.80;21.20
25154;DHT22;47555;51.038;6.280;2022-09-01T13:10:57;24.60;21.30
25154;DHT22;47555;51.038;6.280;2022-09-01T13:13:25;24.50;21.90
25154;DHT22;47555;51.038;6.280;2022-09-01T13:15:56;24.30;22.20
25154;DHT22;47555;51.038;6.280;2022-09-01T13:18:26;24.20;21.50
25154;DHT22;47555;51.038;6.280;2022-09-01T13:20:52;24.20;22.20
25154;DHT22;47555;51.038;6.280;2022-09-01T13:23:18;24.20;22.10
25154;DHT22;47555;51.038;6.280;2022-09-01T13:25:44;24.40;22.60
25154;DHT22;47555;51.038;6.280;2022-09-01T13:28:11;24.50;21.40
25154;DHT22;47555;51.038;6.280;2022-09-01T13:30:38;24.70;22.40
25154;DHT22;47555;51.038;6.280;2022-09-01T13:33:04;24.90;20.80
25154;DHT22;47555;51.038;6.280;2022-09-01T13:35:30;25.00;20.30
25154;DHT22;47555;51.038;6.280;2022-09-01T13:37:55;25.10;19.80
25154;DHT22;47555;51.038;6.280;2022-09-01T13:40:22;25.10;19.30
25154;DHT22;47555;51.038;6.280;2022-09-01T13:42:51;25.20;20.00
25154;DHT22;47555;51.038;6.280;2022-09-01T13:45:19;25.30;19.50
25154;DHT22;47555;51.038;6.280;2022-09-01T13:47:46;25.40;19.80
25154;DHT22;47555;51.038;6.280;2022-09-01T13:50:15;25.50;19.80
25154;DHT22;47555;51.038;6.280;2022-09-01T13:52:45;25.60;19.70
25154;DHT22;47555;51.038;6.280;2022-09-01T13:55:14;25.70;19.80
25154;DHT22;47555;51.038;6.280;2022-09-01T13:57:40;25.70;19.90
25154;DHT22;47555;51.038;6.280;2022-09-01T14:00:11;25.70;19.40
25154;DHT22;47555;51.038;6.280;2022-09-01T14:02:41;25.70;20.40
25154;DHT22;47555;51.038;6.280;2022-09-01T14:05:09;25.70;20.40
25154;DHT22;47555;51.038;6.280;2022-09-01T14:07:34;25.50;20.40
25154;DHT22;47555;51.038;6.280;2022-09-01T14:10:00;25.40;20.50
25154;DHT22;47555;51.038;6.280;2022-09-01T14:12:26;25.40;20.50
25154;DHT22;47555;51.038;6.280;2022-09-01T14:14:51;25.30;20.70
25154;DHT22;47555;51.038;6.280;2022-09-01T14:17:17;25.30;21.10
25154;DHT22;47555;51.038;6.280;2022-09-01T14:19:48;25.30;21.10
25154;DHT22;47555;51.038;6.280;2022-09-01T14:22:14;25.30;21.50
25154;DHT22;47555;51.038;6.280;2022-09-01T14:24:40;25.40;19.30
25154;DHT22;47555;51.038;6.280;2022-09-01T14:27:05;25.40;19.60
25154;DHT22;47555;51.038;6.280;2022-09-01T14:29:31;25.50;19.80
25154;DHT22;47555;51.038;6.280;2022-09-01T14:31:56;25.50;20.40
25154;DHT22;47555;51.038;6.280;2022-09-01T14:34:23;25.60;20.10
25154;DHT22;47555;51.038;6.280;2022-09-01T14:36:49;25.70;19.40
25154;DHT22;47555;51.038;6.280;2022-09-01T14:39:16;25.80;20.60
25154;DHT22;47555;51.038;6.280;2022-09-01T14:41:42;26.00;22.00
25154;DHT22;47555;51.038;6.280;2022-09-01T14:44:07;26.20;19.10
25154;DHT22;47555;51.038;6.280;2022-09-01T14:46:33;26.20;19.80
25154;DHT22;47555;51.038;6.280;2022-09-01T14:49:00;26.20;19.40
25154;DHT22;47555;51.038;6.280;2022-09-01T14:51:27;26.20;20.00
25154;DHT22;47555;51.038;6.280;2022-09-01T14:53:54;26.20;19.30
25154;DHT22;47555;51.038;6.280;2022-09-01T14:56:21;26.10;19.30
25154;DHT22;47555;51.038;6.280;2022-09-01T14:58:48;25.90;19.20
25154;DHT22;47555;51.038;6.280;2022-09-01T15:01:16;25.80;20.10
25154;DHT22;47555;51.038;6.280;2022-09-01T15:03:43;25.70;20.50
25154;DHT22;47555;51.038;6.280;2022-09-01T15:06:12;25.70;20.20
25154;DHT22;47555;51.038;6.280;2022-09-01T15:08:38;25.70;19.70
25154;DHT22;47555;51.038;6.280;2022-09-01T15:11:12;25.70;20.00
25154;DHT22;47555;51.038;6.280;2022-09-01T15:13:39;25.80;20.40
25154;DHT22;47555;51.038;6.280;2022-09-01T15:16:11;25.70;20.30
25154;DHT22;47555;51.038;6.280;2022-09-01T15:18:37;25.70;20.00
25154;DHT22;47555;51.038;6.280;2022-09-01T15:21:03;25.80;20.30
25154;DHT22;47555;51.038;6.280;2022-09-01T15:23:29;25.80;19.90
25154;DHT22;47555;51.038;6.280;2022-09-01T15:25:55;25.70;20.60
25154;DHT22;47555;51.038;6.280;2022-09-01T15:28:23;25.80;21.30
25154;DHT22;47555;51.038;6.280;2022-09-01T15:30:50;25.70;20.00
25154;DHT22;47555;51.038;6.280;2022-09-01T15:33:16;25.70;20.40
25154;DHT22;47555;51.038;6.280;2022-09-01T15:35:43;25.60;20.40
25154;DHT22;47555;51.038;6.280;2022-09-01T15:38:09;25.60;20.50
25154;DHT22;47555;51.038;6.280;2022-09-01T15:40:39;25.60;21.10
25154;DHT22;47555;51.038;6.280;2022-09-01T15:43:05;25.60;21.10
25154;DHT22;47555;51.038;6.280;2022-09-01T15:45:31;25.60;20.00
25154;DHT22;47555;51.038;6.280;2022-09-01T15:47:57;25.70;20.60
25154;DHT22;47555;51.038;6.280;2022-09-01T15:50:24;25.60;20.10
25154;DHT22;47555;51.038;6.280;2022-09-01T15:52:58;25.60;21.00
25154;DHT22;47555;51.038;6.280;2022-09-01T15:55:28;25.60;21.10
25154;DHT22;47555;51.038;6.280;2022-09-01T15:57:56;25.70;21.50
25154;DHT22;47555;51.038;6.280;2022-09-01T16:00:24;25.70;21.20
25154;DHT22;47555;51.038;6.280;2022-09-01T16:02:51;25.70;20.90
25154;DHT22;47555;51.038;6.280;2022-09-01T16:05:18;25.70;21.00
25154;DHT22;47555;51.038;6.280;2022-09-01T16:07:44;25.60;20.30
25154;DHT22;47555;51.038;6.280;2022-09-01T16:10:10;25.60;20.60
25154;DHT22;47555;51.038;6.280;2022-09-01T16:12:38;25.60;21.30
25154;DHT22;47555;51.038;6.280;2022-09-01T16:15:04;25.60;20.50
25154;DHT22;47555;51.038;6.280;2022-09-01T16:17:58;25.50;20.40
25154;DHT22;47555;51.038;6.280;2022-09-01T16:20:32;25.70;20.90
25154;DHT22;47555;51.038;6.280;2022-09-01T16:23:14;25.50;20.40
25154;DHT22;47555;51.038;6.280;2022-09-01T16:25:40;25.40;21.00
25154;DHT22;47555;51.038;6.280;2022-09-01T16:28:28;25.40;21.50
25154;DHT22;47555;51.038;6.280;2022-09-01T16:31:11;25.40;21.20
25154;DHT22;47555;51.038;6.280;2022-09-01T16:33:37;25.30;21.70
25154;DHT22;47555;51.038;6.280;2022-09-01T16:36:13;25.30;21.50
25154;DHT22;47555;51.038;6.280;2022-09-01T16:41:34;25.20;22.40
25154;DHT22;47555;51.038;6.280;2022-09-01T16:46:42;25.10;22.40
25154;DHT22;47555;51.038;6.280;2022-09-01T16:49:23;25.00;22.80
25154;DHT22;47555;51.038;6.280;2022-09-01T16:52:08;25.00;22.40
25154;DHT22;47555;51.038;6.280;2022-09-01T16:59:58;24.90;21.90
25154;DHT22;47555;51.038;6.280;2022-09-01T17:12:54;24.60;24.10
25154;DHT22;47555;51.038;6.280;2022-09-01T17:15:31;24.50;23.70